コペンハーゲン の空港の天気 - METARとTAF

コペンハーゲン国際空港 ( EKCH / CPH ) - デンマーク コペンハーゲン
飛行場実況気象(Metar)
観測時間07/12 17:20 CEST (07/12 15:20 UTC)
風向・風速西 7m/s
視程10km以上
天気現象
全天の8割程度の雲 雲底高度 1010m
気温17℃
湿度63%
気圧1024hPa
METAREKCH 121520Z AUTO 28013KT 9999 BKN033/// 17/10 Q1024 NOSIG
過去の天気等 Google飛行場航空写真 Wunderground天気予報

過去48時間のMETAR

飛行場予報(TAF)
発表時間: 7/12 13:10 CEST (7/12 11:10 UTC)
予報対象時間: 12日14時 CEST ~ 13日14時 CEST
風向・風速西 8m/s
視程10km以上
全天の8割程度の雲 雲底高度 1220m
12日14時 CEST ~ 12日20時 CEST に一時的に
全天の4割程度の塔状積雲 雲底高度 760m
TAF EKCH 121110Z 1212/1312 28015KT 9999 BKN040
TEMPO 1212/1218 SCT025TCU